Time;durP1;ratioP1;P1;durP2;ratioP2;P2;SDS_P1;SDS_P2;PMS_P1;PMS_P2;Temp;Humidity;BMP_temperature;BMP_pressure;BME280_temperature;BME280_humidity;BME280_pressure;Samples;Min_cycle;Max_cycle;Signal;HPM_P1;HPM_P2
2022/05/27 00:01:10;;;;;;;19.92;3.88;;;;;;;7.13;100.00;102020.56;4992306;28;20448;-82
2022/05/27 00:03:36;;;;;;;19.83;5.18;;;;;;;7.23;100.00;102007.31;5013965;28;20045;-81
2022/05/27 00:06:02;;;;;;;17.40;4.75;;;;;;;7.48;100.00;102027.59;5012580;28;20026;-82
2022/05/27 00:08:28;;;;;;;15.35;3.67;;;;;;;7.60;100.00;102031.09;4995642;28;20124;-82
2022/05/27 00:10:55;;;;;;;19.17;3.72;;;;;;;7.70;100.00;102034.72;5002267;28;20042;-82
2022/05/27 00:13:21;;;;;;;20.42;4.00;;;;;;;7.77;100.00;102029.69;4992305;28;20108;-82
2022/05/27 00:15:46;;;;;;;17.25;3.72;;;;;;;7.81;100.00;102012.44;4981658;28;20034;-82
2022/05/27 00:18:12;;;;;;;22.00;3.70;;;;;;;7.88;100.00;102022.47;5010683;28;20437;-82
2022/05/27 00:20:38;;;;;;;18.27;3.63;;;;;;;7.95;100.00;102021.97;4995495;28;20468;-83
2022/05/27 00:23:04;;;;;;;14.82;3.83;;;;;;;8.09;100.00;102035.06;5030554;28;20105;-82
2022/05/27 00:25:30;;;;;;;16.98;4.20;;;;;;;8.13;100.00;102037.38;5013958;28;20020;-82
2022/05/27 00:27:57;;;;;;;17.83;4.88;;;;;;;8.13;100.00;102026.66;5000654;28;22168;-81
2022/05/27 00:30:23;;;;;;;14.20;3.95;;;;;;;8.23;100.00;102044.63;5013732;28;20026;-82
2022/05/27 00:32:49;;;;;;;21.60;7.35;;;;;;;8.20;100.00;102035.00;4996930;28;20053;-82
2022/05/27 00:35:15;;;;;;;15.95;3.72;;;;;;;8.17;100.00;102021.88;5010810;28;20064;-82
2022/05/27 00:37:41;;;;;;;16.95;4.47;;;;;;;8.30;100.00;102035.94;5010155;28;20374;-82
2022/05/27 00:40:07;;;;;;;16.08;3.95;;;;;;;8.30;100.00;102046.66;5015890;28;20033;-81
2022/05/27 00:42:33;;;;;;;18.27;4.40;;;;;;;8.14;100.00;102014.94;5009926;28;20022;-82
2022/05/27 00:44:58;;;;;;;20.08;5.05;;;;;;;8.15;100.00;102042.59;5005364;28;20092;-82
2022/05/27 00:47:27;;;;;;;16.58;3.38;;;;;;;7.99;100.00;102037.69;5009733;28;20034;-82
2022/05/27 00:49:59;;;;;;;15.88;3.72;;;;;;;7.74;100.00;102030.81;4992498;28;20057;-81
2022/05/27 00:52:29;;;;;;;15.20;3.78;;;;;;;7.34;100.00;102023.34;5004957;28;20034;-82
2022/05/27 00:54:54;;;;;;;15.73;4.32;;;;;;;7.11;100.00;102040.38;5009986;28;20033;-82
2022/05/27 00:57:23;;;;;;;21.73;4.53;;;;;;;6.80;100.00;102045.47;5009855;28;20096;-81
2022/05/27 00:59:50;;;;;;;22.27;3.58;;;;;;;6.58;100.00;102044.47;5026746;28;20096;-82
2022/05/27 01:02:17;;;;;;;13.25;3.78;;;;;;;6.44;100.00;102039.34;4995743;28;20475;-82
2022/05/27 01:04:43;;;;;;;21.38;4.03;;;;;;;6.47;100.00;102044.44;5010386;28;20061;-82
2022/05/27 01:07:09;;;;;;;20.45;4.15;;;;;;;6.59;100.00;102046.19;4994620;28;20025;-81
2022/05/27 01:09:37;;;;;;;14.90;4.25;;;;;;;6.64;100.00;102031.59;5009702;28;20345;-83
2022/05/27 01:12:24;;;;;;;14.90;4.03;;;;;;;6.87;100.00;102053.88;5025998;28;20025;-82
2022/05/27 01:15:30;;;;;;;15.30;4.07;;;;;;;6.94;100.00;102042.56;5011117;28;20025;-82
2022/05/27 01:18:17;;;;;;;18.02;4.63;;;;;;;7.04;100.00;102051.59;5008478;28;20041;-84
2022/05/27 01:20:46;;;;;;;21.75;3.72;;;;;;;6.90;100.00;102050.94;5016457;28;20031;-84
2022/05/27 01:23:17;;;;;;;19.75;4.32;;;;;;;6.72;100.00;102047.88;5012294;28;20033;-84
2022/05/27 01:25:59;;;;;;;17.85;4.95;;;;;;;6.46;100.00;102049.91;5024363;28;20453;-83
2022/05/27 01:28:39;;;;;;;17.80;4.20;;;;;;;6.32;100.00;102067.81;5010219;28;20037;-83
2022/05/27 01:31:10;;;;;;;20.08;4.22;;;;;;;6.08;100.00;102027.78;4992305;28;20482;-83
2022/05/27 01:33:44;;;;;;;13.00;3.97;;;;;;;6.31;100.00;102060.78;5010830;28;20029;-82
2022/05/27 01:36:19;;;;;;;17.77;5.13;;;;;;;6.36;100.00;102047.94;5016203;28;20022;-84
2022/05/27 01:39:20;;;;;;;16.90;4.43;;;;;;;6.56;100.00;102069.59;5008679;28;20508;-83
2022/05/27 01:41:52;;;;;;;23.55;4.28;;;;;;;6.72;100.00;102069.25;5000561;28;20084;-83
2022/05/27 01:44:20;;;;;;;24.45;4.47;;;;;;;6.87;100.00;102076.09;5004043;28;20029;-83
2022/05/27 01:46:47;;;;;;;16.80;4.97;;;;;;;6.81;100.00;102044.50;4994573;28;20057;-83
2022/05/27 01:49:24;;;;;;;26.77;4.85;;;;;;;7.08;100.00;102076.25;5002625;28;20034;-83
2022/05/27 01:52:43;;;;;;;22.33;4.15;;;;;;;7.13;100.00;102067.88;5026771;28;20061;-83
2022/05/27 01:55:16;;;;;;;22.02;4.60;;;;;;;7.10;100.00;102055.59;4979203;28;20100;-83
2022/05/27 01:57:48;;;;;;;27.38;4.20;;;;;;;7.23;100.00;102063.50;4987276;28;20034;-83
2022/05/27 02:00:23;;;;;;;17.75;4.00;;;;;;;7.20;100.00;102063.75;5010971;28;20116;-83
2022/05/27 02:03:15;;;;;;;13.77;3.95;;;;;;;7.11;100.00;102065.31;4997813;28;20026;-83
2022/05/27 02:05:44;;;;;;;15.90;3.88;;;;;;;6.89;100.00;102057.28;4982268;28;20037;-83
2022/05/27 02:08:16;;;;;;;20.98;4.88;;;;;;;6.82;100.00;102067.59;5027241;28;20439;-83
2022/05/27 02:11:01;;;;;;;17.48;3.55;;;;;;;6.63;100.00;102054.81;4988531;28;20029;-83
2022/05/27 02:13:42;;;;;;;23.33;4.85;;;;;;;6.77;100.00;102075.13;5011483;28;20034;-83
2022/05/27 02:16:12;;;;;;;20.80;3.63;;;;;;;6.82;100.00;102064.91;4989544;28;20033;-83
2022/05/27 02:18:58;;;;;;;14.23;4.65;;;;;;;7.05;100.00;102076.50;5010411;28;20042;-82
2022/05/27 02:21:31;;;;;;;19.00;4.32;;;;;;;7.07;100.00;102063.00;5001389;28;20042;-83
2022/05/27 02:24:15;;;;;;;22.52;4.15;;;;;;;7.17;100.00;102069.31;5009684;28;20376;-83
2022/05/27 02:26:45;;;;;;;23.20;4.75;;;;;;;7.16;100.00;102065.78;4995738;28;20042;-82
2022/05/27 02:29:18;;;;;;;22.90;6.03;;;;;;;7.23;100.00;102064.34;5008403;28;20080;-83
2022/05/27 02:31:47;;;;;;;14.57;4.15;;;;;;;7.22;100.00;102045.72;5007622;28;20112;-83
2022/05/27 02:37:08;;;;;;;19.70;4.45;;;;;;;7.49;100.00;102075.66;5023000;28;20046;-83
2022/05/27 02:39:34;;;;;;;26.60;4.85;;;;;;;7.47;100.00;102061.53;5003276;28;20506;-82
2022/05/27 02:42:15;;;;;;;16.17;4.07;;;;;;;7.59;100.00;102074.88;5013462;28;20025;-82
2022/05/27 02:44:58;;;;;;;35.05;6.20;;;;;;;7.62;100.00;102075.50;5006393;28;20081;-82
2022/05/27 02:48:15;;;;;;;25.63;5.82;;;;;;;7.62;100.00;102069.28;5011311;28;20120;-83
2022/05/27 02:51:00;;;;;;;29.45;4.50;;;;;;;7.54;100.00;102059.22;4984572;28;20269;-82
2022/05/27 02:53:26;;;;;;;17.70;4.15;;;;;;;7.60;100.00;102066.75;5009908;28;20025;-82
2022/05/27 02:56:04;;;;;;;23.67;5.05;;;;;;;7.67;100.00;102077.78;5008961;28;20037;-83
2022/05/27 02:58:30;;;;;;;20.73;3.70;;;;;;;7.60;100.00;102072.09;5011567;28;20038;-82
2022/05/27 03:00:56;;;;;;;18.08;4.05;;;;;;;7.59;100.00;102073.06;5007088;28;20116;-83
2022/05/27 03:03:22;;;;;;;27.27;5.00;;;;;;;7.61;100.00;102070.25;5022700;28;20520;-84
2022/05/27 03:06:02;;;;;;;21.92;4.75;;;;;;;7.67;100.00;102077.78;4993952;28;20033;-83
2022/05/27 03:08:32;;;;;;;32.42;4.53;;;;;;;7.55;100.00;102074.28;5025519;28;20111;-83
2022/05/27 03:11:16;;;;;;;15.98;4.13;;;;;;;7.38;100.00;102082.81;4983178;28;20033;-82
2022/05/27 03:14:19;;;;;;;18.40;3.88;;;;;;;7.15;100.00;102087.34;5009371;28;20049;-82
2022/05/27 03:17:06;;;;;;;18.33;4.15;;;;;;;6.88;100.00;102085.84;5014136;28;20084;-81
2022/05/27 03:19:49;;;;;;;20.05;5.03;;;;;;;6.75;100.00;102074.41;5018597;28;20376;-81
2022/05/27 03:22:39;;;;;;;20.65;4.93;;;;;;;6.75;100.00;102069.91;5010251;28;20042;-82
2022/05/27 03:25:40;;;;;;;14.38;3.90;;;;;;;6.62;100.00;102076.31;5006167;28;20120;-81
2022/05/27 03:28:24;;;;;;;14.95;4.80;;;;;;;6.30;100.00;102064.44;5004376;28;20030;-82
2022/05/27 03:31:28;;;;;;;14.50;3.90;;;;;;;6.01;100.00;102079.13;5016958;28;20494;-81
2022/05/27 03:33:56;;;;;;;14.98;3.88;;;;;;;5.78;100.00;102097.63;5004528;28;20042;-82
2022/05/27 03:36:33;;;;;;;15.27;3.28;;;;;;;5.59;100.00;102100.78;5023866;28;20045;-83
2022/05/27 03:39:04;;;;;;;21.17;3.78;;;;;;;5.52;100.00;102107.53;4989288;28;20029;-81
2022/05/27 03:41:40;;;;;;;11.02;3.33;;;;;;;5.45;100.00;102103.56;5008169;28;20026;-82
2022/05/27 03:44:06;;;;;;;18.88;3.92;;;;;;;5.37;100.00;102103.28;5022574;28;20060;-81
2022/05/27 03:46:35;;;;;;;14.43;3.65;;;;;;;5.22;100.00;102092.75;5001967;28;20029;-82
2022/05/27 03:49:02;;;;;;;19.23;3.85;;;;;;;5.04;100.00;102088.69;4998854;28;20029;-81
2022/05/27 03:51:34;;;;;;;24.60;3.97;;;;;;;4.93;100.00;102097.44;5006728;28;20026;-81
2022/05/27 03:54:06;;;;;;;20.20;4.25;;;;;;;4.93;100.00;102109.91;5002927;28;20109;-81
2022/05/27 03:56:33;;;;;;;14.43;3.88;;;;;;;4.84;100.00;102104.28;5008782;28;20480;-81
2022/05/27 03:59:00;;;;;;;16.77;4.20;;;;;;;4.80;100.00;102110.75;5009470;28;20132;-82
2022/05/27 04:01:29;;;;;;;18.52;4.32;;;;;;;4.78;100.00;102102.00;4993098;28;20037;-81
2022/05/27 04:03:57;;;;;;;23.60;3.83;;;;;;;4.80;100.00;102113.41;5008174;28;20055;-81
2022/05/27 04:06:22;;;;;;;8.63;3.53;;;;;;;4.73;100.00;102104.13;4985207;28;20038;-81
2022/05/27 04:08:48;;;;;;;16.35;3.67;;;;;;;4.74;100.00;102102.34;4975894;28;20402;-81
2022/05/27 04:11:13;;;;;;;16.95;3.97;;;;;;;4.70;100.00;102108.81;4997466;28;20068;-81
2022/05/27 04:13:39;;;;;;;22.58;5.40;;;;;;;4.61;100.00;102092.50;4990560;28;20080;-82
2022/05/27 04:16:05;;;;;;;21.52;5.60;;;;;;;4.61;100.00;102103.16;5004910;28;20026;-80
2022/05/27 04:18:30;;;;;;;17.92;3.47;;;;;;;4.56;100.00;102101.78;5008955;28;20032;-82
2022/05/27 04:20:56;;;;;;;25.67;4.93;;;;;;;4.90;100.00;102121.66;4992682;28;20040;-81
2022/05/27 04:23:22;;;;;;;9.20;3.10;;;;;;;5.22;100.00;102124.75;5003209;28;20040;-82
2022/05/27 04:25:49;;;;;;;12.40;3.17;;;;;;;5.51;100.00;102132.50;4992040;28;20061;-82
2022/05/27 04:28:15;;;;;;;14.35;3.53;;;;;;;5.62;100.00;102132.59;4992418;28;20084;-81
2022/05/27 04:30:41;;;;;;;15.30;4.45;;;;;;;5.61;100.00;102128.22;4990875;28;20018;-82
2022/05/27 04:33:08;;;;;;;12.57;4.30;;;;;;;5.75;100.00;102135.22;5004149;28;20025;-81
2022/05/27 04:35:35;;;;;;;19.85;4.25;;;;;;;5.77;100.00;102116.41;5022018;28;20441;-81
2022/05/27 04:38:01;;;;;;;15.20;4.25;;;;;;;5.92;100.00;102128.66;5007710;28;20021;-82
2022/05/27 04:40:26;;;;;;;25.27;5.07;;;;;;;6.05;100.00;102126.81;5005678;28;20388;-82
2022/05/27 04:42:52;;;;;;;16.40;3.45;;;;;;;6.19;100.00;102133.81;5025403;28;20029;-81
2022/05/27 04:45:20;;;;;;;17.65;4.72;;;;;;;6.26;100.00;102123.53;5014353;28;20026;-81
2022/05/27 04:47:46;;;;;;;22.05;4.93;;;;;;;6.42;100.00;102121.41;4996252;28;20026;-82
2022/05/27 04:50:11;;;;;;;29.88;5.85;;;;;;;6.38;100.00;102125.31;5002644;28;20029;-81
2022/05/27 04:52:38;;;;;;;27.88;5.13;;;;;;;6.15;100.00;102106.50;5008655;28;20460;-81
2022/05/27 04:55:07;;;;;;;25.75;4.65;;;;;;;5.89;100.00;102100.38;5012348;28;20109;-81
2022/05/27 04:57:35;;;;;;;21.60;4.18;;;;;;;5.67;100.00;102103.75;5006126;28;20495;-81
2022/05/27 05:00:05;;;;;;;15.88;4.40;;;;;;;5.84;100.00;102136.38;5006189;28;20050;-84
2022/05/27 05:02:30;;;;;;;18.17;3.83;;;;;;;5.76;100.00;102139.59;4992426;28;20048;-82
2022/05/27 05:04:56;;;;;;;20.92;3.90;;;;;;;5.83;100.00;102151.53;5013944;28;20109;-81
2022/05/27 05:07:23;;;;;;;20.23;3.85;;;;;;;5.73;100.00;102139.81;5004564;28;20518;-83
2022/05/27 05:09:48;;;;;;;30.60;4.80;;;;;;;5.79;100.00;102157.19;5011239;28;20030;-82
2022/05/27 05:12:14;;;;;;;14.30;4.20;;;;;;;5.72;100.00;102157.66;5011250;28;20057;-82
2022/05/27 05:14:40;;;;;;;17.23;4.65;;;;;;;5.59;100.00;102154.16;4996498;28;20026;-82
2022/05/27 05:17:07;;;;;;;15.18;3.85;;;;;;;5.64;100.00;102157.34;5024135;28;20056;-81
2022/05/27 05:19:33;;;;;;;16.08;3.92;;;;;;;5.80;100.00;102165.09;5026877;28;20476;-82
2022/05/27 05:21:58;;;;;;;23.40;4.15;;;;;;;6.36;100.00;102160.13;5004924;28;20021;-81
2022/05/27 05:24:24;;;;;;;18.85;4.75;;;;;;;7.23;100.00;102162.47;4988039;28;20451;-81
2022/05/27 05:26:50;;;;;;;17.30;3.72;;;;;;;7.58;100.00;102164.19;5018684;28;20112;-82
2022/05/27 05:29:16;;;;;;;21.98;4.57;;;;;;;7.56;100.00;102134.88;4995277;28;20064;-82
2022/05/27 05:31:41;;;;;;;16.75;3.85;;;;;;;7.73;100.00;102168.34;5003369;28;20182;-81
2022/05/27 05:34:07;;;;;;;15.82;3.75;;;;;;;7.53;100.00;102166.38;5005772;28;20026;-81
2022/05/27 05:36:34;;;;;;;20.55;4.25;;;;;;;7.38;100.00;102166.63;4988200;28;20464;-81
2022/05/27 05:39:01;;;;;;;20.58;4.15;;;;;;;8.11;100.00;102177.78;5011241;28;20022;-82
2022/05/27 05:41:38;;;;;;;18.60;4.95;;;;;;;9.37;100.00;102184.19;4995739;28;20034;-84
2022/05/27 05:44:06;;;;;;;12.85;4.10;;;;;;;10.37;95.73;102183.41;5011426;28;20026;-82
2022/05/27 05:46:33;;;;;;;19.77;3.47;;;;;;;11.29;91.61;102179.38;5009209;28;20021;-82
2022/05/27 05:48:59;;;;;;;21.95;3.60;;;;;;;12.18;88.78;102170.81;5007636;28;20087;-83
2022/05/27 05:51:25;;;;;;;11.77;3.42;;;;;;;12.90;86.75;102185.16;5003363;28;20049;-82
2022/05/27 05:53:51;;;;;;;21.70;4.57;;;;;;;12.50;84.65;102175.69;5013452;28;20030;-82
2022/05/27 05:56:16;;;;;;;20.52;4.07;;;;;;;11.94;85.63;102177.63;5008740;28;20682;-83
2022/05/27 05:58:42;;;;;;;15.32;3.92;;;;;;;11.53;86.40;102186.97;4995360;28;20083;-81
2022/05/27 06:01:08;;;;;;;27.63;4.88;;;;;;;11.95;83.15;102186.53;4974158;28;20460;-83
2022/05/27 06:03:33;;;;;;;20.83;4.18;;;;;;;12.60;80.40;102186.41;4966653;28;20345;-82
2022/05/27 06:06:00;;;;;;;17.23;3.88;;;;;;;12.13;81.30;102186.59;5005756;28;20042;-82
2022/05/27 06:08:26;;;;;;;19.77;4.32;;;;;;;11.84;82.24;102188.41;5026953;28;20119;-82
2022/05/27 06:10:51;;;;;;;18.65;3.92;;;;;;;11.68;81.62;102184.66;5009089;28;20065;-81
2022/05/27 06:13:17;;;;;;;18.58;4.30;;;;;;;11.46;82.07;102175.94;5025389;28;20426;-81
2022/05/27 06:15:43;;;;;;;17.20;3.78;;;;;;;11.30;82.29;102190.03;4976986;28;20026;-82
2022/05/27 06:18:08;;;;;;;18.67;3.50;;;;;;;10.94;82.34;102175.50;5019800;28;20022;-81
2022/05/27 06:20:35;;;;;;;18.25;4.13;;;;;;;10.77;82.98;102180.63;5020043;28;20029;-81
2022/05/27 06:23:05;;;;;;;15.45;3.13;;;;;;;10.83;84.27;102186.41;5019398;28;20044;-81
2022/05/27 06:25:31;;;;;;;11.82;3.75;;;;;;;10.91;83.15;102194.63;5010408;28;20030;-81
2022/05/27 06:36:10;;;;;;;18.27;4.50;;;;;;;11.58;79.37;102209.78;5011359;28;20061;-81
2022/05/27 06:38:37;;;;;;;16.48;3.70;;;;;;;11.77;76.97;102203.47;5006862;28;20073;-82
2022/05/27 06:41:03;;;;;;;14.95;3.70;;;;;;;12.20;76.65;102210.09;5005684;28;20181;-83
2022/05/27 06:43:36;;;;;;;15.73;3.50;;;;;;;12.68;73.85;102233.22;5022637;28;20179;-80
2022/05/27 06:46:03;;;;;;;13.13;3.30;;;;;;;13.09;72.38;102225.47;5008978;28;20026;-82
2022/05/27 06:48:31;;;;;;;17.33;3.97;;;;;;;13.45;69.71;102236.25;5010503;28;20072;-83
2022/05/27 06:51:25;;;;;;;13.57;3.88;;;;;;;13.51;68.01;102234.75;5012240;28;20073;-82
2022/05/27 06:54:11;;;;;;;16.85;3.28;;;;;;;12.88;69.18;102187.16;5012470;28;20018;-83
2022/05/27 06:56:38;;;;;;;20.83;4.22;;;;;;;12.52;70.75;102223.09;5006360;28;20136;-83
2022/05/27 06:59:05;;;;;;;18.65;4.05;;;;;;;12.22;72.68;102239.59;5013122;28;20030;-81
2022/05/27 07:01:31;;;;;;;17.17;3.55;;;;;;;12.09;74.20;102240.81;5009283;28;20033;-80
2022/05/27 07:03:57;;;;;;;14.65;3.03;;;;;;;12.16;75.01;102243.75;5000487;28;20037;-81
2022/05/27 07:06:26;;;;;;;18.52;4.07;;;;;;;12.53;74.70;102240.13;4995858;28;20416;-82
2022/05/27 07:08:51;;;;;;;17.52;4.63;;;;;;;13.32;72.29;102252.00;4991100;28;20035;-82
2022/05/27 07:11:20;;;;;;;15.88;6.25;;;;;;;14.43;68.78;102242.09;4998833;28;20233;-80
2022/05/27 07:13:45;;;;;;;19.55;5.13;;;;;;;15.49;62.71;102244.06;5004740;28;20117;-80
2022/05/27 07:16:11;;;;;;;14.45;3.83;;;;;;;17.06;57.42;102232.28;5007781;28;20520;-80
2022/05/27 07:18:36;;;;;;;16.80;3.30;;;;;;;18.46;51.05;102235.16;5019809;28;20037;-80
2022/05/27 07:21:05;;;;;;;15.27;3.40;;;;;;;18.01;50.31;102242.56;5006502;28;20038;-81
2022/05/27 07:23:31;;;;;;;9.25;3.00;;;;;;;17.63;51.39;102249.94;4975901;28;20029;-82
2022/05/27 07:26:11;;;;;;;;;;;;;;;;;;;;;
2022/05/27 07:28:37;;;;;;;16.85;3.72;;;;;;;17.85;53.06;102258.25;5018375;28;20033;-82
2022/05/27 07:31:03;;;;;;;11.20;3.03;;;;;;;17.54;50.87;102257.34;5009929;28;20025;-81
2022/05/27 07:33:29;;;;;;;9.95;3.53;;;;;;;17.08;49.33;102262.84;5008885;28;20041;-81
2022/05/27 07:35:55;;;;;;;22.48;3.92;;;;;;;16.42;50.93;102267.00;4994262;28;20383;-81
2022/05/27 07:38:21;;;;;;;17.17;3.78;;;;;;;15.82;52.75;102265.69;5010167;28;20037;-81
2022/05/27 07:40:46;;;;;;;15.43;3.65;;;;;;;15.42;52.25;102266.59;5004783;28;20034;-81
2022/05/27 07:43:12;;;;;;;17.05;3.83;;;;;;;15.07;52.52;102271.34;5007777;28;20277;-81
2022/05/27 07:45:40;;;;;;;15.65;3.80;;;;;;;15.03;54.62;102275.38;5001639;28;20048;-81
2022/05/27 07:48:06;;;;;;;15.95;3.10;;;;;;;15.42;53.15;102280.97;5027377;28;20025;-81
2022/05/27 07:50:32;;;;;;;17.90;3.40;;;;;;;15.89;51.80;102257.72;4989139;28;20112;-81
2022/05/27 07:52:58;;;;;;;12.75;3.30;;;;;;;17.84;46.19;102270.16;4994140;28;20394;-81
2022/05/27 07:55:24;;;;;;;15.00;3.20;;;;;;;19.46;42.07;102301.59;4994426;28;20042;-81
2022/05/27 07:57:50;;;;;;;9.95;3.15;;;;;;;19.33;41.76;102285.94;5003066;28;20040;-78
2022/05/27 08:00:22;;;;;;;15.38;3.03;;;;;;;18.43;42.83;102268.22;5022220;28;20030;-79
2022/05/27 08:02:48;;;;;;;10.45;2.55;;;;;;;17.99;43.87;102276.44;4975877;28;20030;-80
2022/05/27 08:05:19;;;;;;;8.85;2.90;;;;;;;17.73;44.07;102285.03;4983927;28;20037;-80
2022/05/27 08:07:46;;;;;;;13.65;3.05;;;;;;;17.62;45.39;102299.09;4992892;28;20053;-78
2022/05/27 08:10:14;;;;;;;10.65;2.67;;;;;;;17.32;44.69;102296.28;4985548;28;20117;-78
2022/05/27 08:12:40;;;;;;;9.07;2.63;;;;;;;17.06;44.14;102283.91;5017971;28;20033;-80
2022/05/27 08:15:08;;;;;;;18.10;2.65;;;;;;;17.20;45.75;102293.19;5014768;28;20026;-80
2022/05/27 08:17:34;;;;;;;11.93;2.72;;;;;;;17.33;45.80;102295.25;5036177;28;20005;-81
2022/05/27 08:20:00;;;;;;;10.82;2.50;;;;;;;17.27;46.00;102301.44;5043397;28;20017;-81
2022/05/27 08:22:26;;;;;;;16.95;2.50;;;;;;;17.03;44.53;102278.84;5035275;28;20053;-80
2022/05/27 08:24:52;;;;;;;10.60;2.70;;;;;;;16.62;45.88;102292.69;5046919;28;20029;-80
2022/05/27 08:27:20;;;;;;;10.80;2.67;;;;;;;16.31;47.05;102306.25;5006927;28;20412;-80
2022/05/27 08:29:46;;;;;;;8.38;2.50;;;;;;;16.26;46.42;102295.06;5003820;28;20089;-80
2022/05/27 08:32:11;;;;;;;11.05;2.97;;;;;;;16.55;46.69;102305.28;5017132;28;20372;-80
2022/05/27 08:40:11;;;;;;;6.97;2.25;;;;;;;22.07;34.76;102291.22;5015412;28;20442;-79
2022/05/27 08:42:53;;;;;;;10.88;2.70;;;;;;;24.57;30.52;102307.06;4986070;28;20460;-81
2022/05/27 08:45:21;;;;;;;15.02;2.90;;;;;;;25.84;28.70;102294.91;5008211;28;20023;-79
2022/05/27 08:47:54;;;;;;;7.90;2.60;;;;;;;27.32;27.95;102302.53;5029764;28;20029;-81
2022/05/27 08:50:44;;;;;;;10.10;2.60;;;;;;;25.62;28.15;102300.16;4996843;28;20033;-79
2022/05/27 08:53:37;;;;;;;18.05;2.90;;;;;;;24.41;29.21;102307.66;5011848;28;20503;-78
2022/05/27 09:01:44;;;;;;;9.02;2.72;;;;;;;25.94;28.14;102294.31;5025016;28;20033;-79
2022/05/27 09:04:46;;;;;;;6.53;2.35;;;;;;;27.76;26.13;102302.69;5013139;28;20021;-81
2022/05/27 09:07:20;;;;;;;9.00;3.15;;;;;;;24.21;29.52;102287.81;5024980;28;20079;-82
2022/05/27 09:09:46;;;;;;;7.97;2.47;;;;;;;21.91;32.67;102308.09;5000779;28;20065;-83
2022/05/27 09:12:37;;;;;;;10.80;2.75;;;;;;;20.09;36.75;102312.56;5011187;28;20057;-82
2022/05/27 09:15:05;;;;;;;9.63;2.95;;;;;;;19.49;38.36;102316.72;5015591;28;20033;-80
2022/05/27 09:17:58;;;;;;;8.38;2.45;;;;;;;19.92;38.20;102317.47;5005997;28;20049;-81
2022/05/27 09:20:37;;;;;;;11.45;2.70;;;;;;;23.72;32.68;102317.09;5014370;28;20046;-81
2022/05/27 09:23:27;;;;;;;10.00;2.35;;;;;;;23.36;31.87;102311.22;4988573;28;20449;-80
2022/05/27 09:26:19;;;;;;;8.75;2.65;;;;;;;24.32;31.63;102306.31;5008963;28;20467;-80
2022/05/27 09:28:54;;;;;;;11.48;2.72;;;;;;;25.06;29.34;102317.16;5005776;28;20061;-81
2022/05/27 09:31:45;;;;;;;6.25;2.15;;;;;;;23.87;30.61;102310.19;4989002;28;20487;-82
2022/05/27 09:34:12;;;;;;;5.47;1.92;;;;;;;24.87;29.03;102311.72;5013160;28;20032;-81
2022/05/27 09:36:41;;;;;;;9.00;2.70;;;;;;;25.82;28.79;102309.97;5010918;28;20032;-85
2022/05/27 09:39:13;;;;;;;11.50;2.60;;;;;;;26.55;26.13;102293.94;5019663;28;20105;-83
2022/05/27 09:42:03;;;;;;;10.18;2.50;;;;;;;27.06;25.35;102292.97;5002060;28;20288;-82
2022/05/27 09:44:48;;;;;;;14.05;3.08;;;;;;;27.68;24.73;102299.50;5017378;28;20071;-82
2022/05/27 09:47:15;;;;;;;9.40;2.80;;;;;;;28.63;24.62;102314.94;5028660;28;20044;-84
2022/05/27 09:49:41;;;;;;;12.18;2.45;;;;;;;26.47;26.01;102322.72;5012549;28;20037;-83
2022/05/27 09:52:06;;;;;;;7.93;2.22;;;;;;;25.90;27.81;102315.16;4987753;28;20025;-80
2022/05/27 09:54:50;;;;;;;7.38;2.45;;;;;;;25.14;28.66;102327.81;5013006;28;20041;-81
2022/05/27 09:57:23;;;;;;;6.88;2.47;;;;;;;26.58;26.90;102330.16;4999211;28;20026;-81
2022/05/27 09:59:57;;;;;;;9.40;2.17;;;;;;;27.59;26.20;102329.50;5013403;28;20482;-80
2022/05/27 10:02:34;;;;;;;10.70;2.47;;;;;;;28.44;24.89;102328.25;5010922;28;20037;-79
2022/05/27 10:05:17;;;;;;;7.40;2.40;;;;;;;25.77;26.61;102332.72;4992476;28;20079;-81
2022/05/27 10:07:49;;;;;;;9.98;2.42;;;;;;;23.37;32.12;102340.38;4992989;28;20033;-80
2022/05/27 10:10:21;;;;;;;12.87;2.37;;;;;;;21.88;33.84;102303.91;5009164;28;20038;-79
2022/05/27 10:12:48;;;;;;;11.27;2.90;;;;;;;24.43;30.52;102340.44;5012216;28;20022;-79
2022/05/27 10:15:40;;;;;;;10.10;2.72;;;;;;;27.18;26.17;102346.22;5011776;28;20051;-81
2022/05/27 10:18:20;;;;;;;9.70;3.00;;;;;;;28.81;23.60;102302.63;4971155;28;20495;-78
2022/05/27 10:21:12;;;;;;;7.85;2.20;;;;;;;25.48;27.70;102311.66;5007471;28;20029;-76
2022/05/27 10:23:39;;;;;;;;;;;;;;;25.39;28.50;102355.22;5011628;28;20490;-79
2022/05/27 10:26:33;;;;;;;4.93;2.10;;;;;;;26.51;25.51;102351.47;4992070;28;19924;-79
2022/05/27 10:29:11;;;;;;;5.18;2.50;;;;;;;26.85;26.49;102351.63;5027064;28;20026;-79
2022/05/27 10:31:37;;;;;;;9.55;3.25;;;;;;;27.15;26.62;102338.41;5018462;28;20065;-78
2022/05/27 10:34:03;;;;;;;5.05;2.10;;;;;;;27.93;25.02;102335.00;4979908;28;20053;-79
2022/05/27 10:36:55;;;;;;;13.50;3.13;;;;;;;28.72;24.22;102337.44;5010461;28;20040;-79
2022/05/27 10:39:30;;;;;;;7.05;2.20;;;;;;;27.44;25.19;102341.13;5002639;28;20503;-78
2022/05/27 10:42:22;;;;;;;7.20;2.72;;;;;;;23.60;30.80;102353.47;5000764;28;20022;-78
2022/05/27 10:44:57;;;;;;;7.28;3.00;;;;;;;24.31;29.94;102357.69;4993874;28;20022;-80
2022/05/27 10:47:43;;;;;;;12.13;2.47;;;;;;;25.91;28.02;102360.06;5020119;28;20053;-80
2022/05/27 10:50:36;;;;;;;9.00;2.45;;;;;;;26.98;26.03;102354.09;5007607;28;20129;-80
2022/05/27 10:53:28;;;;;;;7.05;2.10;;;;;;;27.97;25.49;102348.09;4992165;28;20025;-79
2022/05/27 10:56:07;;;;;;;7.22;2.42;;;;;;;28.09;25.63;102352.66;5007956;28;20431;-80
2022/05/27 11:02:10;;;;;;;6.32;2.50;;;;;;;27.57;25.26;102321.47;5025961;28;20032;-80
2022/05/27 11:04:48;;;;;;;8.43;2.13;;;;;;;28.41;25.01;102353.63;5020476;28;20041;-79
2022/05/27 11:07:24;;;;;;;8.48;2.60;;;;;;;25.06;27.89;102334.53;5017717;28;20033;-80
2022/05/27 11:10:12;;;;;;;10.30;2.80;;;;;;;25.39;28.83;102344.19;5009580;28;20040;-80
2022/05/27 11:16:06;;;;;;;5.75;1.80;;;;;;;24.18;30.17;102362.47;5024650;28;20036;-81
2022/05/27 11:18:51;;;;;;;10.27;2.72;;;;;;;26.51;26.96;102348.72;5015903;28;20044;-79
2022/05/27 11:21:19;;;;;;;5.38;2.20;;;;;;;27.92;26.50;102358.19;5006983;28;20061;-78
2022/05/27 11:24:12;;;;;;;8.38;2.83;;;;;;;28.47;25.06;102363.72;5006737;28;20033;-78
2022/05/27 11:26:52;;;;;;;10.60;2.60;;;;;;;28.43;24.39;102347.84;5019417;28;20511;-78
2022/05/27 11:29:52;;;;;;;10.30;2.60;;;;;;;27.98;26.07;102359.97;4997159;28;20036;-80
2022/05/27 11:32:47;;;;;;;9.03;2.70;;;;;;;28.66;24.60;102361.47;5010849;28;20033;-79
2022/05/27 11:35:34;;;;;;;9.25;2.40;;;;;;;29.26;24.20;102348.50;4989654;28;20475;-80
2022/05/27 11:38:11;;;;;;;10.27;2.30;;;;;;;29.04;22.65;102358.81;5027288;28;20030;-79
2022/05/27 11:40:55;;;;;;;10.93;2.40;;;;;;;27.61;25.47;102350.25;5014386;28;20032;-79
2022/05/27 11:43:39;;;;;;;8.40;2.30;;;;;;;25.36;28.76;102344.69;5015017;28;20025;-79
2022/05/27 11:46:24;;;;;;;8.82;2.47;;;;;;;24.62;28.91;102341.28;5009607;28;20030;-79
2022/05/27 11:49:07;;;;;;;6.28;2.30;;;;;;;25.40;28.17;102345.88;5019941;28;20036;-79
2022/05/27 11:51:54;;;;;;;;;;;;;;;26.52;27.83;102353.22;5008562;28;20120;-80
2022/05/27 11:54:29;;;;;;;7.18;1.70;;;;;;;27.60;25.06;102339.44;5023089;28;20001;-79
2022/05/27 11:57:05;;;;;;;5.30;2.33;;;;;;;28.40;24.13;102353.91;5009539;28;20091;-79
2022/05/27 11:59:36;;;;;;;13.57;2.40;;;;;;;28.77;24.33;102348.56;5009782;28;20033;-79
2022/05/27 12:02:06;;;;;;;7.13;1.98;;;;;;;28.16;25.27;102339.50;4996769;28;20029;-79
2022/05/27 12:04:36;;;;;;;6.28;1.85;;;;;;;26.44;25.97;102353.56;5008040;28;20050;-78
2022/05/27 12:07:13;;;;;;;9.00;2.58;;;;;;;26.96;26.51;102347.97;5008120;28;20022;-79
2022/05/27 12:09:49;;;;;;;7.78;2.30;;;;;;;27.72;25.04;102354.00;5015051;28;20342;-78
2022/05/27 12:12:39;;;;;;;7.50;2.45;;;;;;;27.83;25.33;102349.50;4990931;28;20029;-80
2022/05/27 12:15:14;;;;;;;6.57;2.22;;;;;;;28.23;24.34;102340.13;5011474;28;20091;-78
2022/05/27 12:17:43;;;;;;;6.45;2.38;;;;;;;28.59;24.33;102343.38;5001839;28;20080;-78